Home > Products > Valid Products > TAF

000
FTUS45 KGJT 200520
TAFGJT
TAF
KGJT 200520Z 2006/2106 10008KT P6SM SCT150
     FM202000 28008KT P6SM SCT100
     FM210000 35006KT P6SM BKN250=



000
FTUS45 KGJT 200520
TAFGJT
TAF
KGJT 200520Z 2006/2106 10008KT P6SM SCT150
     FM202000 28008KT P6SM SCT100
     FM210000 35006KT P6SM BKN250=



000
FTUS45 KGJT 200520
TAFGJT
TAF
KGJT 200520Z 2006/2106 10008KT P6SM SCT150
     FM202000 28008KT P6SM SCT100
     FM210000 35006KT P6SM BKN250=



000
FTUS45 KGJT 192321
TAFGJT
TAF
KGJT 192321Z 2000/2024 28006KT P6SM SKC
     FM200500 10008KT P6SM SKC
     FM202000 28008KT P6SM SCT100=



000
FTUS45 KGJT 192321
TAFGJT
TAF
KGJT 192321Z 2000/2024 28006KT P6SM SKC
     FM200500 10008KT P6SM SKC
     FM202000 28008KT P6SM SCT100=



000
FTUS45 KGJT 192321
TAFGJT
TAF
KGJT 192321Z 2000/2024 28006KT P6SM SKC
     FM200500 10008KT P6SM SKC
     FM202000 28008KT P6SM SCT100=



000
FTUS45 KGJT 192321
TAFGJT
TAF
KGJT 192321Z 2000/2024 28006KT P6SM SKC
     FM200500 10008KT P6SM SKC
     FM202000 28008KT P6SM SCT100=



000
FTUS45 KGJT 191724
TAFGJT
TAF
KGJT 191724Z 1918/2018 11010KT P6SM OVC100
     FM191900 30006KT P6SM SCT100 BKN150
     FM200000 01005KT P6SM BKN250
     FM200600 10010KT P6SM BKN250
     FM201600 17007KT P6SM SKC=



000
FTUS45 KGJT 191724
TAFGJT
TAF
KGJT 191724Z 1918/2018 11010KT P6SM OVC100
     FM191900 30006KT P6SM SCT100 BKN150
     FM200000 01005KT P6SM BKN250
     FM200600 10010KT P6SM BKN250
     FM201600 17007KT P6SM SKC=



000
FTUS45 KGJT 191120
TAFGJT
TAF
KGJT 191120Z 1912/2012 11010KT P6SM OVC100
     FM191900 30006KT P6SM SCT100 BKN150
     FM200000 01005KT P6SM BKN250
     FM200600 10010KT P6SM BKN250=



000
FTUS45 KGJT 191120
TAFGJT
TAF
KGJT 191120Z 1912/2012 11010KT P6SM OVC100
     FM191900 30006KT P6SM SCT100 BKN150
     FM200000 01005KT P6SM BKN250
     FM200600 10010KT P6SM BKN250=



000
FTUS45 KGJT 190531
TAFGJT
TAF
KGJT 190531Z 1906/2006 08005KT P6SM BKN110
     FM190900 11010KT P6SM BKN200
     FM191900 30006KT P6SM SCT100 BKN150
     FM200000 01005KT P6SM BKN250=



000
FTUS45 KGJT 190531
TAFGJT
TAF
KGJT 190531Z 1906/2006 08005KT P6SM BKN110
     FM190900 11010KT P6SM BKN200
     FM191900 30006KT P6SM SCT100 BKN150
     FM200000 01005KT P6SM BKN250=



000
FTUS45 KGJT 182332
TAFGJT
TAF
KGJT 182332Z 1900/1924 30006KT P6SM SCT120 OVC150
     FM190300 08005KT P6SM OVC150
     FM190900 11010KT P6SM BKN200
     FM191900 30006KT P6SM SCT100 BKN150=



000
FTUS45 KGJT 182332
TAFGJT
TAF
KGJT 182332Z 1900/1924 30006KT P6SM SCT120 OVC150
     FM190300 08005KT P6SM OVC150
     FM190900 11010KT P6SM BKN200
     FM191900 30006KT P6SM SCT100 BKN150=



000
FTUS45 KGJT 181721
TAFGJT
TAF
KGJT 181721Z 1818/1918 15008KT P6SM SCT120 BKN150
     FM182000 30006KT P6SM SCT120 BKN150
     FM190300 08005KT P6SM BKN150
     FM190900 11010KT P6SM SCT200=



000
FTUS45 KGJT 181721
TAFGJT
TAF
KGJT 181721Z 1818/1918 15008KT P6SM SCT120 BKN150
     FM182000 30006KT P6SM SCT120 BKN150
     FM190300 08005KT P6SM BKN150
     FM190900 11010KT P6SM SCT200=



000
FTUS45 KGJT 181120
TAFGJT
TAF
KGJT 181120Z 1812/1912 11005KT P6SM SCT150 BKN200
     FM181600 15006KT P6SM SCT120 BKN150
     FM182000 28006KT P6SM BKN120
     FM190300 04005KT P6SM SCT200
     FM190900 11010KT P6SM FEW200=



000
FTUS45 KGJT 181120
TAFGJT
TAF
KGJT 181120Z 1812/1912 11005KT P6SM SCT150 BKN200
     FM181600 15006KT P6SM SCT120 BKN150
     FM182000 28006KT P6SM BKN120
     FM190300 04005KT P6SM SCT200
     FM190900 11010KT P6SM FEW200=



000
FTUS45 KGJT 181120
TAFGJT
TAF
KGJT 181120Z 1812/1912 11005KT P6SM SCT150 BKN200
     FM181600 15006KT P6SM SCT120 BKN150
     FM182000 28006KT P6SM BKN120
     FM190300 04005KT P6SM SCT200
     FM190900 11010KT P6SM FEW200=



000
FTUS45 KGJT 181120
TAFGJT
TAF
KGJT 181120Z 1812/1912 11005KT P6SM SCT150 BKN200
     FM181600 15006KT P6SM SCT120 BKN150
     FM182000 28006KT P6SM BKN120
     FM190300 04005KT P6SM SCT200
     FM190900 11010KT P6SM FEW200=



000
FTUS45 KGJT 180529
TAFGJT
TAF
KGJT 180529Z 1806/1906 11005KT P6SM SCT150 BKN200
     FM181600 15006KT P6SM SCT120 BKN150
     FM182000 28006KT P6SM BKN120
     FM190300 04005KT P6SM SCT200=



000
FTUS45 KGJT 180529
TAFGJT
TAF
KGJT 180529Z 1806/1906 11005KT P6SM SCT150 BKN200
     FM181600 15006KT P6SM SCT120 BKN150
     FM182000 28006KT P6SM BKN120
     FM190300 04005KT P6SM SCT200=



000
FTUS45 KGJT 172326
TAFGJT
TAF
KGJT 172326Z 1800/1824 30008KT P6SM BKN250
     FM180200 04004KT P6SM FEW150 BKN200
     FM180600 11005KT P6SM SCT150 BKN200
     FM181600 15006KT P6SM SCT120 BKN150
     FM182000 28006KT P6SM BKN120=



000
FTUS45 KGJT 172326
TAFGJT
TAF
KGJT 172326Z 1800/1824 30008KT P6SM BKN250
     FM180200 04004KT P6SM FEW150 BKN200
     FM180600 11005KT P6SM SCT150 BKN200
     FM181600 15006KT P6SM SCT120 BKN150
     FM182000 28006KT P6SM BKN120=



000
FTUS45 KGJT 172326
TAFGJT
TAF
KGJT 172326Z 1800/1824 30008KT P6SM BKN250
     FM180200 04004KT P6SM FEW150 BKN200
     FM180600 11005KT P6SM SCT150 BKN200
     FM181600 15006KT P6SM SCT120 BKN150
     FM182000 28006KT P6SM BKN120=



000
FTUS45 KGJT 172326
TAFGJT
TAF
KGJT 172326Z 1800/1824 30008KT P6SM BKN250
     FM180200 04004KT P6SM FEW150 BKN200
     FM180600 11005KT P6SM SCT150 BKN200
     FM181600 15006KT P6SM SCT120 BKN150
     FM182000 28006KT P6SM BKN120=



000
FTUS45 KGJT 171749
TAFGJT
TAF
KGJT 171749Z 1718/1818 15007KT P6SM BKN250
     FM172000 28005KT P6SM BKN250
     FM180200 04004KT P6SM FEW150 BKN200
     FM180600 11005KT P6SM SCT150 BKN200=



000
FTUS45 KGJT 171749
TAFGJT
TAF
KGJT 171749Z 1718/1818 15007KT P6SM BKN250
     FM172000 28005KT P6SM BKN250
     FM180200 04004KT P6SM FEW150 BKN200
     FM180600 11005KT P6SM SCT150 BKN200=



000
FTUS45 KGJT 171120
TAFGJT
TAF
KGJT 171120Z 1712/1812 11007KT P6SM FEW250
     FM171600 14005KT P6SM SCT250
     FM172000 28005KT P6SM SCT250
     FM180200 04004KT P6SM FEW150 BKN200
     FM180600 11005KT P6SM SCT150 BKN200=



000
FTUS45 KGJT 171120
TAFGJT
TAF
KGJT 171120Z 1712/1812 11007KT P6SM FEW250
     FM171600 14005KT P6SM SCT250
     FM172000 28005KT P6SM SCT250
     FM180200 04004KT P6SM FEW150 BKN200
     FM180600 11005KT P6SM SCT150 BKN200=



000
FTUS45 KGJT 171120
TAFGJT
TAF
KGJT 171120Z 1712/1812 11007KT P6SM FEW250
     FM171600 14005KT P6SM SCT250
     FM172000 28005KT P6SM SCT250
     FM180200 04004KT P6SM FEW150 BKN200
     FM180600 11005KT P6SM SCT150 BKN200=



    US Dept of Commerce
    National Oceanic and Atmospheric Administration
    National Weather Service
    1325 East West Highway
    Silver Spring, MD 20910
    Page Author: NWS Internet Services Team
Disclaimer
Information Quality
Credits
Glossary
Privacy Policy
Freedom of Information Act (FOIA)
About Us
Career Opportunities